This is the latest recevied weather packets stored in our database for station/object KQ7A. If no packets are shown the sender has not sent any weather packets the latest 10 day(s).
| Time | Temp. | Humidity | Pressure | Rain* | Wind** | Luminosity | Snow |
|---|---|---|---|---|---|---|---|
| 1778039090 | 10° C | 76% | 1015.5 hPa | 0 mm | - | 0 W/m² | - |
| 1778038786 | 10° C | 76% | 1015.2 hPa | 0 mm | - | 0 W/m² | - |
| 1778038484 | 10° C | 77% | 1015 hPa | 0 mm | - | 0 W/m² | - |
| 1778038180 | 10° C | 76% | 1015.1 hPa | 0 mm | - | 0 W/m² | - |
| 1778037878 | 10° C | 77% | 1014.8 hPa | 0 mm | - | 0 W/m² | - |
| 1778037574 | 10.56° C | 78% | 1014.7 hPa | 0 mm | - | 0 W/m² | - |
| 1778037271 | 10° C | 80% | 1014.6 hPa | 0 mm | - | 0 W/m² | - |
| 1778036969 | 10.56° C | 78% | 1014.7 hPa | 0 mm | - | 0 W/m² | - |
| 1778036667 | 10.56° C | 75% | 1014.7 hPa | 0 mm | - | 0 W/m² | - |
| 1778036363 | 10° C | 77% | 1014.6 hPa | 0 mm | - | 0 W/m² | - |
| 1778036061 | 10.56° C | 76% | 1014.5 hPa | 0 mm | - | 3 W/m² | - |
| 1778035757 | 11.67° C | 73% | 1014.4 hPa | 0 mm | - | 5 W/m² | - |
| 1778035454 | 11.11° C | 73% | 1014.3 hPa | 0 mm | - | 6 W/m² | - |
| 1778035150 | 11.11° C | 72% | 1014.3 hPa | 0 mm | - | 8 W/m² | - |
| 1778034847 | 11.11° C | 75% | 1014.4 hPa | 0 mm | - | 10 W/m² | - |
| 1778034543 | 11.67° C | 74% | 1014 hPa | 0 mm | - | 12 W/m² | - |
| 1778034241 | 11.67° C | 75% | 1014.1 hPa | 0 mm | - | 15 W/m² | - |
| 1778033939 | 11.67° C | 74% | 1014.1 hPa | 0 mm | - | 16 W/m² | - |
| 1778033636 | 12.22° C | 72% | 1013.9 hPa | 0 mm | - | 20 W/m² | - |
| 1778033333 | 12.78° C | 70% | 1014.1 hPa | 0 mm | - | 24 W/m² | - |
| 1778033031 | 12.78° C | 70% | 1014 hPa | 0 mm | - | 26 W/m² | - |
| 1778032728 | 12.78° C | 69% | 1014.1 hPa | 0 mm | - | 27 W/m² | - |
| 1778032425 | 12.78° C | 67% | 1013.9 hPa | 0 mm | - | 29 W/m² | - |
| 1778032122 | 12.78° C | 70% | 1013.8 hPa | 0 mm | - | 30 W/m² | - |
| 1778031819 | 13.33° C | 67% | 1013.8 hPa | 0 mm | - | 32 W/m² | - |
* Rain latest hour (hover to see other rain measurements)
** Current wind speed in m/s (hover to see current wind gust speed)